createdAt,value
2022-09-07T00:00:58.917Z,97791.50
2022-09-07T00:03:27.394Z,97781.34
2022-09-07T00:05:54.203Z,97786.38
2022-09-07T00:08:24.561Z,97768.03
2022-09-07T00:11:00.229Z,97778.97
2022-09-07T00:13:30.285Z,97778.19
2022-09-07T00:15:57.085Z,97780.50
2022-09-07T00:18:28.281Z,97780.50
2022-09-07T00:21:03.375Z,97781.22
2022-09-07T00:23:32.538Z,97785.84
2022-09-07T00:26:13.676Z,97783.81
2022-09-07T00:28:44.781Z,97764.56
2022-09-07T00:31:16.212Z,97775.31
2022-09-07T00:33:43.505Z,97774.41
2022-09-07T00:36:10.694Z,97784.38
2022-09-07T00:38:37.977Z,97786.66
2022-09-07T00:41:04.745Z,97784.94
2022-09-07T00:43:36.832Z,97785.66
2022-09-07T00:46:05.492Z,97772.25
2022-09-07T00:48:49.959Z,97783.09
2022-09-07T00:51:40.428Z,97781.16
2022-09-07T00:54:12.506Z,97778.50
2022-09-07T00:56:42.135Z,97773.81
2022-09-07T00:59:11.136Z,97777.78
2022-09-07T01:01:39.561Z,97781.78
2022-09-07T01:04:09.188Z,97778.03
2022-09-07T01:06:38.310Z,97785.94
2022-09-07T01:09:16.795Z,97782.47
2022-09-07T01:11:45.833Z,97772.00
2022-09-07T01:14:15.723Z,97782.19
2022-09-07T01:17:19.323Z,97778.66
2022-09-07T01:19:56.673Z,97788.50
2022-09-07T01:23:01.171Z,97781.63
2022-09-07T01:25:46.534Z,97788.81
2022-09-07T01:28:27.475Z,97792.44
2022-09-07T01:31:06.430Z,97796.84
2022-09-07T01:33:55.543Z,97791.81
2022-09-07T01:36:30.093Z,97800.81
2022-09-07T01:39:04.445Z,97791.94
2022-09-07T01:41:46.782Z,97789.25
2022-09-07T01:44:28.774Z,97794.38
2022-09-07T01:46:58.211Z,97799.13
2022-09-07T01:49:35.733Z,97799.88
2022-09-07T01:52:15.125Z,97791.34
2022-09-07T01:54:48.670Z,97785.91
2022-09-07T01:57:22.570Z,97795.72
2022-09-07T01:59:58.195Z,97790.25
2022-09-07T02:02:30.071Z,97784.06
2022-09-07T02:05:06.532Z,97779.44
2022-09-07T02:07:48.020Z,97784.16
2022-09-07T02:10:24.129Z,97784.56
2022-09-07T02:13:17.018Z,97784.91
2022-09-07T02:15:58.099Z,97784.91
2022-09-07T02:18:28.851Z,97781.00
2022-09-07T02:21:00.590Z,97787.63
2022-09-07T02:23:37.181Z,97784.91
2022-09-07T02:26:09.387Z,97792.34
2022-09-07T02:28:38.573Z,97790.78
2022-09-07T02:31:06.147Z,97788.47
2022-09-07T02:33:39.565Z,97785.75
2022-09-07T02:36:06.714Z,97778.72
2022-09-07T02:38:34.810Z,97786.91
2022-09-07T02:41:03.309Z,97788.09
2022-09-07T02:43:31.822Z,97790.84
2022-09-07T02:46:18.563Z,97787.34
2022-09-07T02:49:23.701Z,97781.84
2022-09-07T02:52:35.075Z,97775.94
2022-09-07T02:55:17.413Z,97784.91
2022-09-07T02:57:48.447Z,97786.88
2022-09-07T03:00:19.313Z,97782.94
2022-09-07T03:03:08.588Z,97785.63
2022-09-07T03:05:59.079Z,97789.91
2022-09-07T03:08:36.824Z,97787.19
2022-09-07T03:11:06.268Z,97780.50
2022-09-07T03:13:33.528Z,97776.66
2022-09-07T03:16:00.845Z,97775.53
2022-09-07T03:18:28.439Z,97772.44
2022-09-07T03:20:55.788Z,97778.72
2022-09-07T03:23:24.313Z,97779.16
2022-09-07T03:25:51.211Z,97785.03
2022-09-07T03:28:18.031Z,97787.41
2022-09-07T03:30:55.773Z,97795.59
2022-09-07T03:33:22.415Z,97785.47
2022-09-07T03:36:06.065Z,97789.78
2022-09-07T03:38:32.824Z,97793.69
2022-09-07T03:41:05.131Z,97792.16
2022-09-07T03:43:32.980Z,97810.13
2022-09-07T03:46:01.484Z,97803.56
2022-09-07T03:48:31.158Z,97792.00
2022-09-07T03:51:01.313Z,97799.09
2022-09-07T03:53:30.505Z,97809.28
2022-09-07T03:56:09.445Z,97813.22
2022-09-07T03:58:36.081Z,97815.19
2022-09-07T04:01:08.914Z,97821.81
2022-09-07T04:03:37.641Z,97820.34
2022-09-07T04:06:04.868Z,97827.03
2022-09-07T04:08:33.747Z,97829.38
2022-09-07T04:11:01.995Z,97827.44
2022-09-07T04:13:31.424Z,97825.47
2022-09-07T04:15:58.343Z,97821.19
2022-09-07T04:18:32.079Z,97822.00
2022-09-07T04:21:00.651Z,97813.75
2022-09-07T04:23:31.251Z,97816.47
2022-09-07T04:26:02.575Z,97820.00
2022-09-07T04:28:29.253Z,97822.66
2022-09-07T04:30:55.943Z,97835.13
2022-09-07T04:33:22.735Z,97832.41
2022-09-07T04:35:49.368Z,97836.31
2022-09-07T04:38:16.724Z,97828.88
2022-09-07T04:40:44.256Z,97820.69
2022-09-07T04:43:13.188Z,97819.09
2022-09-07T04:45:40.504Z,97815.91
2022-09-07T04:48:07.626Z,97815.91
2022-09-07T04:50:34.483Z,97825.28
2022-09-07T04:53:01.038Z,97820.63
2022-09-07T04:55:27.791Z,97827.56
2022-09-07T04:57:54.335Z,97821.31
2022-09-07T05:00:20.956Z,97830.66
2022-09-07T05:02:47.757Z,97834.50
2022-09-07T05:05:14.576Z,97838.00
2022-09-07T05:07:44.654Z,97839.13
2022-09-07T05:10:11.553Z,97843.03
2022-09-07T05:12:38.286Z,97834.53
2022-09-07T05:15:05.510Z,97835.34
2022-09-07T05:17:32.349Z,97833.41
2022-09-07T05:19:59.197Z,97834.44
2022-09-07T05:22:25.813Z,97836.16
2022-09-07T05:24:54.267Z,97822.19
2022-09-07T05:27:22.929Z,97823.75
2022-09-07T05:30:05.819Z,97829.94
2022-09-07T05:32:40.672Z,97825.66
2022-09-07T05:35:07.407Z,97826.50
2022-09-07T05:37:34.467Z,97833.47
2022-09-07T05:40:02.856Z,97834.41
2022-09-07T05:42:30.404Z,97839.13
2022-09-07T05:44:57.271Z,97850.44
2022-09-07T05:47:26.300Z,97843.56
2022-09-07T05:49:57.064Z,97851.44
2022-09-07T05:52:23.962Z,97849.84
2022-09-07T05:54:54.328Z,97850.88
2022-09-07T05:57:23.177Z,97836.38
2022-09-07T05:59:49.764Z,97837.66
2022-09-07T06:02:18.220Z,97837.50
2022-09-07T06:04:48.970Z,97846.81
2022-09-07T06:07:22.148Z,97842.31
2022-09-07T06:12:40.166Z,97853.03
2022-09-07T06:15:09.226Z,97855.03
2022-09-07T06:17:35.888Z,97858.38
2022-09-07T06:20:03.657Z,97864.31
2022-09-07T06:22:31.303Z,97878.19
2022-09-07T06:24:58.348Z,97879.69
2022-09-07T06:27:24.875Z,97885.34
2022-09-07T06:29:53.177Z,97887.34
2022-09-07T06:35:13.327Z,97877.38
2022-09-07T06:37:41.153Z,97871.28
2022-09-07T06:40:08.750Z,97871.78
2022-09-07T06:42:35.508Z,97877.13
2022-09-07T06:45:02.121Z,97872.03
2022-09-07T06:47:31.010Z,97871.53
2022-09-07T06:49:59.322Z,97880.63
2022-09-07T06:52:26.027Z,97879.34
2022-09-07T06:55:00.239Z,97883.84
2022-09-07T06:57:29.577Z,97887.09
2022-09-07T06:59:56.466Z,97881.38
2022-09-07T07:02:22.983Z,97876.09
2022-09-07T07:04:52.369Z,97878.25
2022-09-07T07:07:18.913Z,97881.28
2022-09-07T07:09:45.430Z,97880.50
2022-09-07T07:14:45.317Z,97896.81
2022-09-07T07:17:12.303Z,97891.72
2022-09-07T07:19:39.027Z,97881.03
2022-09-07T07:22:18.789Z,97880.28
2022-09-07T07:24:57.556Z,97885.63
2022-09-07T07:27:24.158Z,97889.06
2022-09-07T07:29:52.442Z,97904.72
2022-09-07T07:32:19.669Z,97909.66
2022-09-07T07:34:46.291Z,97911.47
2022-09-07T07:37:17.235Z,97906.16
2022-09-07T07:42:35.593Z,97915.03
2022-09-07T07:47:51.606Z,97914.44
2022-09-07T07:50:34.367Z,97910.06
2022-09-07T07:55:48.929Z,97911.03
2022-09-07T07:58:18.499Z,97910.28
2022-09-07T08:01:00.447Z,97918.66
2022-09-07T08:03:36.124Z,97902.84
2022-09-07T08:06:22.730Z,97897.50
2022-09-07T08:08:53.782Z,97897.47
2022-09-07T08:11:20.747Z,97894.81
2022-09-07T08:13:49.615Z,97906.50
2022-09-07T08:16:23.076Z,97911.28
2022-09-07T08:18:49.704Z,97899.88
2022-09-07T08:21:16.659Z,97895.28
2022-09-07T08:23:43.665Z,97894.03
2022-09-07T08:26:10.440Z,97894.69
2022-09-07T08:28:40.483Z,97896.19
2022-09-07T08:31:15.431Z,97888.03
2022-09-07T08:33:42.072Z,97879.78
2022-09-07T08:36:12.475Z,97883.28
2022-09-07T08:38:41.280Z,97881.06
2022-09-07T08:41:19.876Z,97888.31
2022-09-07T08:43:59.742Z,97887.50
2022-09-07T08:46:40.462Z,97884.03
2022-09-07T08:49:19.261Z,97880.22
2022-09-07T08:51:53.262Z,97885.69
2022-09-07T08:54:19.902Z,97880.91
2022-09-07T08:59:47.789Z,97873.84
2022-09-07T09:02:38.410Z,97873.91
2022-09-07T09:05:20.860Z,97868.28
2022-09-07T09:08:15.578Z,97868.88
2022-09-07T09:10:41.996Z,97860.13
2022-09-07T09:13:26.003Z,97860.34
2022-09-07T09:15:52.957Z,97866.97
2022-09-07T09:19:03.376Z,97853.00
2022-09-07T09:21:29.910Z,97864.03
2022-09-07T09:24:02.123Z,97858.06
2022-09-07T09:26:35.191Z,97860.38
2022-09-07T09:29:23.060Z,97850.53
2022-09-07T09:31:49.926Z,97843.28
2022-09-07T09:34:23.805Z,97839.28
2022-09-07T09:36:54.671Z,97834.03
2022-09-07T09:39:27.001Z,97831.00
2022-09-07T09:41:57.232Z,97836.69
2022-09-07T09:44:26.182Z,97830.97
2022-09-07T09:49:41.702Z,97817.91
2022-09-07T09:52:29.684Z,97818.53
2022-09-07T09:55:07.156Z,97808.66
2022-09-07T10:03:59.744Z,97803.97
2022-09-07T10:06:28.255Z,97791.59
2022-09-07T10:09:01.887Z,97790.41
2022-09-07T10:14:46.362Z,97765.59
2022-09-07T10:17:21.551Z,97770.03
2022-09-07T10:19:49.622Z,97773.31
2022-09-07T10:22:40.523Z,97769.28
2022-09-07T10:25:39.686Z,97771.00
2022-09-07T10:28:20.300Z,97771.75
2022-09-07T10:31:19.478Z,97755.69
2022-09-07T10:37:08.796Z,97757.47
2022-09-07T10:39:42.705Z,97759.50
2022-09-07T10:42:09.351Z,97761.03
2022-09-07T10:45:01.059Z,97756.06
2022-09-07T10:47:33.301Z,97749.22
2022-09-07T10:50:23.780Z,97748.56
2022-09-07T10:52:56.454Z,97744.84
2022-09-07T10:55:31.795Z,97739.03
2022-09-07T10:58:13.215Z,97735.81
2022-09-07T11:01:14.395Z,97738.84
2022-09-07T11:04:09.560Z,97736.25
2022-09-07T11:06:42.640Z,97727.56
2022-09-07T11:09:22.824Z,97726.84
2022-09-07T11:12:01.140Z,97727.00
2022-09-07T11:14:31.494Z,97717.63
2022-09-07T11:17:03.047Z,97725.53
2022-09-07T11:19:39.880Z,97720.91
2022-09-07T11:22:20.150Z,97714.66
2022-09-07T11:27:50.124Z,97714.69
2022-09-07T11:30:27.405Z,97711.44
2022-09-07T11:33:06.113Z,97708.13
2022-09-07T11:35:59.705Z,97708.19
2022-09-07T11:38:32.599Z,97701.59
2022-09-07T11:41:08.128Z,97686.47
2022-09-07T11:43:41.642Z,97688.25
2022-09-07T11:46:15.451Z,97684.81
2022-09-07T11:48:47.716Z,97684.47
2022-09-07T11:51:40.292Z,97679.78
2022-09-07T11:54:23.939Z,97675.28
2022-09-07T11:56:59.554Z,97668.84
2022-09-07T11:59:52.200Z,97660.31
2022-09-07T12:02:58.927Z,97666.38
2022-09-07T12:06:00.554Z,97664.94
2022-09-07T12:08:44.369Z,97657.34
2022-09-07T12:11:25.740Z,97661.84
2022-09-07T12:14:34.454Z,97656.00
2022-09-07T12:17:40.649Z,97658.69
2022-09-07T12:20:16.491Z,97653.75
2022-09-07T12:23:05.188Z,97653.75
2022-09-07T12:25:35.775Z,97640.81
2022-09-07T12:28:02.752Z,97637.38
2022-09-07T12:30:32.460Z,97632.31
2022-09-07T12:33:18.490Z,97635.06
2022-09-07T12:35:45.384Z,97627.72
2022-09-07T12:38:17.812Z,97624.81
2022-09-07T12:41:00.622Z,97621.66
2022-09-07T12:43:52.930Z,97620.66
2022-09-07T12:46:34.967Z,97608.16
2022-09-07T12:49:28.186Z,97610.16
2022-09-07T12:52:18.207Z,97603.91
2022-09-07T12:55:26.710Z,97609.75
2022-09-07T12:58:17.377Z,97607.66
2022-09-07T13:01:05.768Z,97596.53
2022-09-07T13:03:56.686Z,97591.47
2022-09-07T13:07:07.343Z,97589.16
2022-09-07T13:09:54.811Z,97586.88
2022-09-07T13:15:47.698Z,97572.31
2022-09-07T13:18:27.400Z,97565.25
2022-09-07T13:21:13.771Z,97566.94
2022-09-07T13:23:45.690Z,97566.19
2022-09-07T13:26:35.317Z,97570.13
2022-09-07T13:29:13.795Z,97562.44
2022-09-07T13:31:43.693Z,97562.31
2022-09-07T13:34:29.223Z,97559.88
2022-09-07T13:36:57.589Z,97565.25
2022-09-07T13:39:24.565Z,97557.41
2022-09-07T13:41:55.695Z,97549.19
2022-09-07T13:44:27.397Z,97548.50
2022-09-07T13:47:03.036Z,97547.19
2022-09-07T13:49:43.675Z,97540.31
2022-09-07T13:52:18.413Z,97543.84
2022-09-07T13:58:41.145Z,97534.91
2022-09-07T14:01:17.957Z,97527.66
2022-09-07T14:04:00.145Z,97525.53
2022-09-07T14:06:28.352Z,97521.34
2022-09-07T14:08:58.041Z,97518.63
2022-09-07T14:11:30.641Z,97517.09
2022-09-07T14:14:32.898Z,97510.75
2022-09-07T14:16:59.684Z,97506.53
2022-09-07T14:19:36.008Z,97506.38
2022-09-07T14:22:08.745Z,97500.78
2022-09-07T14:24:38.316Z,97502.72
2022-09-07T14:27:20.853Z,97498.19
2022-09-07T14:29:49.697Z,97494.53
2022-09-07T14:32:23.833Z,97490.81
2022-09-07T14:34:53.007Z,97493.06
2022-09-07T14:37:21.950Z,97497.34
2022-09-07T14:39:55.037Z,97498.06
2022-09-07T14:42:24.109Z,97499.22
2022-09-07T14:45:13.133Z,97483.63
2022-09-07T14:47:40.721Z,97484.22
2022-09-07T14:50:20.582Z,97479.88
2022-09-07T14:55:49.476Z,97478.16
2022-09-07T14:58:15.915Z,97487.13
2022-09-07T15:03:59.485Z,97459.34
2022-09-07T15:09:38.102Z,97446.78
2022-09-07T15:12:17.738Z,97447.38
2022-09-07T15:14:44.393Z,97440.94
2022-09-07T15:20:32.571Z,97454.81
2022-09-07T15:23:01.103Z,97450.13
2022-09-07T15:25:28.805Z,97448.56
2022-09-07T15:27:59.446Z,97441.22
2022-09-07T15:30:27.439Z,97444.59
2022-09-07T15:32:59.857Z,97441.66
2022-09-07T15:35:26.925Z,97446.34
2022-09-07T15:38:02.414Z,97441.22
2022-09-07T15:40:36.408Z,97440.63
2022-09-07T15:43:19.833Z,97444.53
2022-09-07T15:45:48.129Z,97452.19
2022-09-07T15:48:18.580Z,97451.72
2022-09-07T15:50:45.055Z,97459.94
2022-09-07T15:54:07.522Z,97465.75
2022-09-07T15:55:59.783Z,97457.91
2022-09-07T15:58:26.278Z,97463.19
2022-09-07T16:03:43.306Z,97463.06
2022-09-07T16:06:13.939Z,97464.63
2022-09-07T16:08:40.938Z,97465.59
2022-09-07T16:11:18.949Z,97464.59
2022-09-07T16:13:48.239Z,97464.19
2022-09-07T16:16:15.611Z,97457.78
2022-09-07T16:18:46.664Z,97467.94
2022-09-07T16:21:15.972Z,97471.00
2022-09-07T16:23:45.243Z,97469.50
2022-09-07T16:26:14.834Z,97466.91
2022-09-07T16:28:43.539Z,97475.63
2022-09-07T16:31:15.144Z,97471.06
2022-09-07T16:33:41.629Z,97480.56
2022-09-07T16:36:13.023Z,97480.56
2022-09-07T16:38:45.128Z,97473.50
2022-09-07T16:41:17.439Z,97480.56
2022-09-07T16:43:48.308Z,97476.25
2022-09-07T16:46:18.078Z,97468.44
2022-09-07T16:48:44.646Z,97459.28
2022-09-07T16:51:14.488Z,97460.34
2022-09-07T16:53:41.032Z,97452.53
2022-09-07T16:56:10.194Z,97441.53
2022-09-07T16:58:41.630Z,97432.03
2022-09-07T17:01:10.914Z,97424.50
2022-09-07T17:03:38.241Z,97421.75
2022-09-07T17:06:11.785Z,97428.97
2022-09-07T17:08:39.551Z,97422.41
2022-09-07T17:11:17.485Z,97426.53
2022-09-07T17:13:46.574Z,97434.19
2022-09-07T17:16:15.714Z,97446.81
2022-09-07T17:21:34.717Z,97482.34
2022-09-07T17:24:04.587Z,97482.06
2022-09-07T17:26:32.517Z,97481.63
2022-09-07T17:29:00.803Z,97472.28
2022-09-07T17:34:17.909Z,97457.88
2022-09-07T17:36:44.657Z,97462.00
2022-09-07T17:39:16.285Z,97462.00
2022-09-07T17:41:44.866Z,97474.22
2022-09-07T17:44:16.325Z,97465.06
2022-09-07T17:46:42.930Z,97454.63
2022-09-07T17:49:16.495Z,97450.19
2022-09-07T17:51:44.564Z,97441.31
2022-09-07T17:54:14.765Z,97435.34
2022-09-07T17:56:41.953Z,97415.31
2022-09-07T18:01:56.303Z,97392.81
2022-09-07T18:04:25.668Z,97391.38
2022-09-07T18:06:53.986Z,97390.63
2022-09-07T18:09:20.541Z,97383.28
2022-09-07T18:11:49.055Z,97390.13
2022-09-07T18:14:16.835Z,97401.41
2022-09-07T18:16:45.152Z,97403.09
2022-09-07T18:19:12.641Z,97402.47
2022-09-07T18:21:43.341Z,97405.06
2022-09-07T18:24:24.517Z,97400.59
2022-09-07T18:26:53.229Z,97402.66
2022-09-07T18:29:32.973Z,97400.78
2022-09-07T18:32:08.588Z,97407.13
2022-09-07T18:34:36.230Z,97411.47
2022-09-07T18:37:03.009Z,97415.34
2022-09-07T18:39:31.555Z,97424.28
2022-09-07T18:41:58.103Z,97426.84
2022-09-07T18:47:28.007Z,97419.41
2022-09-07T18:49:55.530Z,97409.78
2022-09-07T18:55:09.996Z,97412.25
2022-09-07T18:57:40.695Z,97427.31
2022-09-07T19:00:09.773Z,97438.72
2022-09-07T19:02:36.637Z,97436.13
2022-09-07T19:07:50.092Z,97459.06
2022-09-07T19:10:22.086Z,97460.81
2022-09-07T19:12:48.552Z,97462.34
2022-09-07T19:15:15.177Z,97460.94
2022-09-07T19:17:43.401Z,97475.84
2022-09-07T19:20:13.533Z,97487.63
2022-09-07T19:22:40.140Z,97484.88
2022-09-07T19:25:06.966Z,97490.34
2022-09-07T19:27:33.483Z,97485.63
2022-09-07T19:30:00.205Z,97487.47
2022-09-07T19:32:27.104Z,97482.00
2022-09-07T19:34:58.505Z,97485.84
2022-09-07T19:37:25.645Z,97471.69
2022-09-07T19:39:55.357Z,97473.97
2022-09-07T19:42:26.453Z,97461.47
2022-09-07T19:44:54.059Z,97455.00
2022-09-07T19:47:23.247Z,97457.81
2022-09-07T19:49:49.705Z,97458.41
2022-09-07T19:52:16.598Z,97471.13
2022-09-07T19:54:45.614Z,97471.13
2022-09-07T19:57:12.087Z,97462.69
2022-09-07T19:59:38.596Z,97447.25
2022-09-07T20:02:10.540Z,97441.53
2022-09-07T20:04:37.007Z,97443.28
2022-09-07T20:07:04.022Z,97439.44
2022-09-07T20:09:30.851Z,97439.88
2022-09-07T20:11:57.376Z,97440.00
2022-09-07T20:14:27.392Z,97453.59
2022-09-07T20:16:54.080Z,97461.06
2022-09-07T20:19:20.560Z,97468.53
2022-09-07T20:21:48.130Z,97466.63
2022-09-07T20:24:15.124Z,97465.56
2022-09-07T20:26:41.777Z,97467.72
2022-09-07T20:29:26.583Z,97471.44
2022-09-07T20:31:58.998Z,97494.25
2022-09-07T20:34:26.927Z,97503.69
2022-09-07T20:36:54.135Z,97506.84
2022-09-07T20:39:22.601Z,97524.06
2022-09-07T20:41:49.770Z,97536.44
2022-09-07T20:44:17.075Z,97554.31
2022-09-07T20:46:44.143Z,97562.22
2022-09-07T20:49:11.026Z,97571.63
2022-09-07T20:51:37.500Z,97578.75
2022-09-07T20:54:10.774Z,97580.06
2022-09-07T20:56:37.246Z,97589.81
2022-09-07T20:59:03.998Z,97582.31
2022-09-07T21:01:32.570Z,97570.69
2022-09-07T21:04:00.845Z,97548.72
2022-09-07T21:06:29.600Z,97534.44
2022-09-07T21:08:59.276Z,97544.72
2022-09-07T21:11:35.675Z,97588.72
2022-09-07T21:14:07.811Z,97606.97
2022-09-07T21:16:35.661Z,97625.06
2022-09-07T21:19:04.354Z,97635.00
2022-09-07T21:21:38.925Z,97633.88
2022-09-07T21:24:06.624Z,97626.97
2022-09-07T21:26:36.586Z,97607.19
2022-09-07T21:29:05.306Z,97581.13
2022-09-07T21:31:33.628Z,97567.94
2022-09-07T21:34:02.069Z,97570.38
2022-09-07T21:36:31.450Z,97559.84
2022-09-07T21:38:57.964Z,97551.72
2022-09-07T21:41:25.391Z,97528.38
2022-09-07T21:43:59.273Z,97506.50
2022-09-07T21:46:29.093Z,97487.88
2022-09-07T21:48:58.020Z,97452.00
2022-09-07T21:51:25.826Z,97418.50
2022-09-07T21:53:57.199Z,97399.78
2022-09-07T21:56:24.565Z,97386.09
2022-09-07T21:59:01.358Z,97358.00
2022-09-07T22:01:29.586Z,97342.53
2022-09-07T22:04:01.065Z,97347.22
2022-09-07T22:06:28.893Z,97360.47
2022-09-07T22:08:56.149Z,97375.78
2022-09-07T22:11:24.547Z,97390.16
2022-09-07T22:13:57.417Z,97404.38
2022-09-07T22:16:24.227Z,97395.91
2022-09-07T22:18:51.707Z,97385.59
2022-09-07T22:21:23.405Z,97380.97
2022-09-07T22:23:52.482Z,97362.72
2022-09-07T22:26:21.658Z,97365.03
2022-09-07T22:28:49.103Z,97376.63
2022-09-07T22:31:23.426Z,97380.91
2022-09-07T22:33:53.075Z,97382.00
2022-09-07T22:36:29.226Z,97390.13
2022-09-07T22:38:59.623Z,97389.63
2022-09-07T22:41:28.604Z,97407.53
2022-09-07T22:43:56.073Z,97410.09
2022-09-07T22:46:24.286Z,97410.88
2022-09-07T22:48:53.867Z,97416.34
2022-09-07T22:51:20.597Z,97427.59
2022-09-07T22:53:47.224Z,97444.84
2022-09-07T22:56:16.991Z,97451.09
2022-09-07T22:58:50.441Z,97455.88
2022-09-07T23:01:20.625Z,97481.28
2022-09-07T23:03:47.184Z,97492.59
2022-09-07T23:06:28.882Z,97495.75
2022-09-07T23:08:58.027Z,97502.81
2022-09-07T23:11:25.816Z,97503.25
2022-09-07T23:13:53.819Z,97496.66
2022-09-07T23:16:21.647Z,97502.38
2022-09-07T23:18:48.990Z,97500.78
2022-09-07T23:21:15.801Z,97486.00
2022-09-07T23:23:42.438Z,97478.22
2022-09-07T23:26:11.385Z,97473.19
2022-09-07T23:28:39.970Z,97458.75
2022-09-07T23:31:10.428Z,97445.94
2022-09-07T23:33:37.287Z,97445.69
2022-09-07T23:36:11.023Z,97452.75
2022-09-07T23:38:37.522Z,97472.66
2022-09-07T23:41:04.363Z,97473.00
2022-09-07T23:43:33.687Z,97479.66
2022-09-07T23:46:00.418Z,97488.25
2022-09-07T23:48:29.060Z,97490.31
2022-09-07T23:50:57.297Z,97493.44
2022-09-07T23:53:24.209Z,97493.53
2022-09-07T23:55:51.826Z,97497.13
2022-09-07T23:58:26.402Z,97508.03
